sensor_id;sensor_type;location;lat;lon;timestamp;pressure;altitude;pressure_sealevel;temperature;humidity
52291;BME280;39663;45.432;28.050;2023-02-28T00:00:05;102416.04;;;13.28;48.11
52291;BME280;39663;45.432;28.050;2023-02-28T00:00:38;102414.19;;;13.27;47.98
52291;BME280;39663;45.432;28.050;2023-02-28T00:01:10;102415.52;;;13.22;48.32
52291;BME280;39663;45.432;28.050;2023-02-28T00:01:41;102411.62;;;13.23;48.22
52291;BME280;39663;45.432;28.050;2023-02-28T00:02:13;102411.16;;;13.28;47.95
52291;BME280;39663;45.432;28.050;2023-02-28T00:02:45;102411.38;;;13.27;48.07
52291;BME280;39663;45.432;28.050;2023-02-28T00:03:17;102411.17;;;13.27;48.14
52291;BME280;39663;45.432;28.050;2023-02-28T00:03:49;102411.18;;;13.65;47.99
52291;BME280;39663;45.432;28.050;2023-02-28T00:04:21;102410.52;;;13.45;48.14
52291;BME280;39663;45.432;28.050;2023-02-28T00:04:52;102409.56;;;13.23;48.24
52291;BME280;39663;45.432;28.050;2023-02-28T00:05:26;102409.24;;;13.21;48.35
52291;BME280;39663;45.432;28.050;2023-02-28T00:05:57;102408.12;;;13.42;48.19
52291;BME280;39663;45.432;28.050;2023-02-28T00:06:29;102409.95;;;13.24;48.17
52291;BME280;39663;45.432;28.050;2023-02-28T00:07:01;102411.79;;;13.43;47.67
52291;BME280;39663;45.432;28.050;2023-02-28T00:07:33;102413.55;;;13.17;48.25
52291;BME280;39663;45.432;28.050;2023-02-28T00:08:05;102415.06;;;13.21;48.23
52291;BME280;39663;45.432;28.050;2023-02-28T00:08:37;102414.65;;;13.47;47.88
52291;BME280;39663;45.432;28.050;2023-02-28T00:09:09;102417.53;;;13.20;47.90
52291;BME280;39663;45.432;28.050;2023-02-28T00:09:40;102418.59;;;13.22;48.23
52291;BME280;39663;45.432;28.050;2023-02-28T00:10:16;102419.20;;;13.26;48.36
52291;BME280;39663;45.432;28.050;2023-02-28T00:10:48;102419.98;;;13.39;48.05
52291;BME280;39663;45.432;28.050;2023-02-28T00:11:20;102422.88;;;13.41;47.71
52291;BME280;39663;45.432;28.050;2023-02-28T00:11:51;102420.56;;;13.16;48.17
52291;BME280;39663;45.432;28.050;2023-02-28T00:12:23;102421.91;;;13.20;48.21
52291;BME280;39663;45.432;28.050;2023-02-28T00:13:00;102424.44;;;13.39;48.04
52291;BME280;39663;45.432;28.050;2023-02-28T00:13:35;102424.60;;;13.12;48.07
52291;BME280;39663;45.432;28.050;2023-02-28T00:14:07;102425.27;;;13.17;47.29
52291;BME280;39663;45.432;28.050;2023-02-28T00:14:39;102425.22;;;13.30;48.09
52291;BME280;39663;45.432;28.050;2023-02-28T00:15:11;102424.49;;;13.10;48.09
52291;BME280;39663;45.432;28.050;2023-02-28T00:15:43;102425.28;;;13.38;48.13
52291;BME280;39663;45.432;28.050;2023-02-28T00:16:16;102423.96;;;13.08;48.31
52291;BME280;39663;45.432;28.050;2023-02-28T00:16:48;102426.65;;;13.08;48.39
52291;BME280;39663;45.432;28.050;2023-02-28T00:17:20;102428.12;;;13.16;48.30
52291;BME280;39663;45.432;28.050;2023-02-28T00:17:52;102427.96;;;13.12;48.31
52291;BME280;39663;45.432;28.050;2023-02-28T00:18:23;102427.88;;;13.31;48.33
52291;BME280;39663;45.432;28.050;2023-02-28T00:18:55;102427.55;;;13.32;48.20
52291;BME280;39663;45.432;28.050;2023-02-28T00:19:27;102428.12;;;13.37;47.82
52291;BME280;39663;45.432;28.050;2023-02-28T00:19:58;102428.87;;;13.11;48.26
52291;BME280;39663;45.432;28.050;2023-02-28T00:20:30;102427.82;;;13.12;48.34
52291;BME280;39663;45.432;28.050;2023-02-28T00:21:02;102429.62;;;13.15;48.35
52291;BME280;39663;45.432;28.050;2023-02-28T00:21:34;102427.87;;;13.30;47.94
52291;BME280;39663;45.432;28.050;2023-02-28T00:22:05;102428.94;;;13.14;48.20
52291;BME280;39663;45.432;28.050;2023-02-28T00:22:38;102429.82;;;13.11;48.41
52291;BME280;39663;45.432;28.050;2023-02-28T00:23:10;102433.12;;;13.33;48.19
52291;BME280;39663;45.432;28.050;2023-02-28T00:23:41;102434.94;;;13.38;48.25
52291;BME280;39663;45.432;28.050;2023-02-28T00:24:13;102434.76;;;13.13;48.37
52291;BME280;39663;45.432;28.050;2023-02-28T00:24:44;102432.56;;;13.32;48.38
52291;BME280;39663;45.432;28.050;2023-02-28T00:25:19;102431.69;;;13.21;48.39
52291;BME280;39663;45.432;28.050;2023-02-28T00:25:52;102433.35;;;13.49;48.45
52291;BME280;39663;45.432;28.050;2023-02-28T00:26:23;102429.60;;;13.14;48.36
52291;BME280;39663;45.432;28.050;2023-02-28T00:26:55;102429.30;;;13.05;48.55
52291;BME280;39663;45.432;28.050;2023-02-28T00:27:27;102428.75;;;13.28;48.56
52291;BME280;39663;45.432;28.050;2023-02-28T00:27:58;102428.19;;;13.13;48.50
52291;BME280;39663;45.432;28.050;2023-02-28T00:28:30;102426.39;;;13.03;48.60
52291;BME280;39663;45.432;28.050;2023-02-28T00:29:02;102430.94;;;13.36;48.53
52291;BME280;39663;45.432;28.050;2023-02-28T00:29:33;102431.34;;;13.29;48.52
52291;BME280;39663;45.432;28.050;2023-02-28T00:30:08;102430.87;;;13.22;48.60
52291;BME280;39663;45.432;28.050;2023-02-28T00:30:40;102430.95;;;13.05;48.47
52291;BME280;39663;45.432;28.050;2023-02-28T00:31:11;102429.04;;;13.28;48.49
52291;BME280;39663;45.432;28.050;2023-02-28T00:31:43;102427.42;;;13.14;48.46
52291;BME280;39663;45.432;28.050;2023-02-28T00:32:15;102429.62;;;13.09;48.57
52291;BME280;39663;45.432;28.050;2023-02-28T00:32:46;102427.53;;;13.55;48.25
52291;BME280;39663;45.432;28.050;2023-02-28T00:33:18;102422.56;;;13.26;48.48
52291;BME280;39663;45.432;28.050;2023-02-28T00:33:50;102423.22;;;12.88;48.57
52291;BME280;39663;45.432;28.050;2023-02-28T00:34:21;102421.47;;;13.13;48.57
52291;BME280;39663;45.432;28.050;2023-02-28T00:34:53;102419.89;;;13.22;48.51
52291;BME280;39663;45.432;28.050;2023-02-28T00:35:25;102417.66;;;13.23;48.59
52291;BME280;39663;45.432;28.050;2023-02-28T00:36:06;102417.62;;;13.01;48.63
52291;BME280;39663;45.432;28.050;2023-02-28T00:36:38;102417.41;;;13.06;48.66
52291;BME280;39663;45.432;28.050;2023-02-28T00:37:10;102417.92;;;13.19;48.69
52291;BME280;39663;45.432;28.050;2023-02-28T00:37:42;102416.56;;;13.22;48.55
52291;BME280;39663;45.432;28.050;2023-02-28T00:38:14;102416.60;;;13.02;48.59
52291;BME280;39663;45.432;28.050;2023-02-28T00:38:46;102418.61;;;13.43;48.64
52291;BME280;39663;45.432;28.050;2023-02-28T00:39:18;102418.64;;;13.20;48.64
52291;BME280;39663;45.432;28.050;2023-02-28T00:39:50;102419.83;;;13.24;48.68
52291;BME280;39663;45.432;28.050;2023-02-28T00:40:22;102418.49;;;13.00;48.71
52291;BME280;39663;45.432;28.050;2023-02-28T00:40:53;102415.35;;;13.19;48.63
52291;BME280;39663;45.432;28.050;2023-02-28T00:41:25;102415.85;;;13.01;48.68
52291;BME280;39663;45.432;28.050;2023-02-28T00:41:57;102414.54;;;13.05;48.75
52291;BME280;39663;45.432;28.050;2023-02-28T00:42:28;102415.18;;;13.05;48.80
52291;BME280;39663;45.432;28.050;2023-02-28T00:43:00;102413.54;;;13.19;48.78
52291;BME280;39663;45.432;28.050;2023-02-28T00:43:33;102416.11;;;13.24;48.80
52291;BME280;39663;45.432;28.050;2023-02-28T00:44:06;102415.17;;;13.00;48.80
52291;BME280;39663;45.432;28.050;2023-02-28T00:44:37;102415.32;;;13.41;48.50
52291;BME280;39663;45.432;28.050;2023-02-28T00:45:09;102416.44;;;13.18;48.74
52291;BME280;39663;45.432;28.050;2023-02-28T00:45:41;102416.63;;;13.15;48.83
52291;BME280;39663;45.432;28.050;2023-02-28T00:46:13;102416.92;;;12.98;48.78
52291;BME280;39663;45.432;28.050;2023-02-28T00:46:44;102414.11;;;13.05;48.77
52291;BME280;39663;45.432;28.050;2023-02-28T00:47:16;102415.04;;;13.37;48.92
52291;BME280;39663;45.432;28.050;2023-02-28T00:47:47;102411.97;;;12.99;48.73
52291;BME280;39663;45.432;28.050;2023-02-28T00:48:19;102410.01;;;13.02;48.70
52291;BME280;39663;45.432;28.050;2023-02-28T00:48:51;102412.60;;;12.96;48.78
52291;BME280;39663;45.432;28.050;2023-02-28T00:49:24;102407.13;;;13.17;48.81
52291;BME280;39663;45.432;28.050;2023-02-28T00:49:56;102405.40;;;13.05;48.77
52291;BME280;39663;45.432;28.050;2023-02-28T00:50:28;102404.89;;;13.16;48.85
52291;BME280;39663;45.432;28.050;2023-02-28T00:51:00;102404.43;;;13.15;48.84
52291;BME280;39663;45.432;28.050;2023-02-28T00:51:32;102404.59;;;13.03;48.78
52291;BME280;39663;45.432;28.050;2023-02-28T00:52:07;102402.50;;;12.95;48.75
52291;BME280;39663;45.432;28.050;2023-02-28T00:52:39;102402.01;;;13.06;48.64
52291;BME280;39663;45.432;28.050;2023-02-28T00:53:15;102399.88;;;13.02;48.45
52291;BME280;39663;45.432;28.050;2023-02-28T00:53:47;102401.48;;;12.98;48.45
52291;BME280;39663;45.432;28.050;2023-02-28T00:54:20;102403.46;;;12.98;48.69
52291;BME280;39663;45.432;28.050;2023-02-28T00:54:51;102402.46;;;12.97;48.66
52291;BME280;39663;45.432;28.050;2023-02-28T00:55:23;102400.15;;;13.31;48.75
52291;BME280;39663;45.432;28.050;2023-02-28T00:55:55;102399.11;;;13.36;48.75
52291;BME280;39663;45.432;28.050;2023-02-28T00:56:26;102397.38;;;12.94;48.77
52291;BME280;39663;45.432;28.050;2023-02-28T00:56:58;102399.32;;;13.38;48.86
52291;BME280;39663;45.432;28.050;2023-02-28T00:57:30;102397.84;;;13.03;48.55
52291;BME280;39663;45.432;28.050;2023-02-28T00:58:01;102401.08;;;12.98;48.25
52291;BME280;39663;45.432;28.050;2023-02-28T00:58:33;102400.73;;;13.16;48.58
52291;BME280;39663;45.432;28.050;2023-02-28T01:09:08;102384.07;;;12.86;49.30
52291;BME280;39663;45.432;28.050;2023-02-28T01:09:39;102389.62;;;13.05;49.35
52291;BME280;39663;45.432;28.050;2023-02-28T01:10:11;102391.63;;;12.81;49.29
52291;BME280;39663;45.432;28.050;2023-02-28T01:10:43;102394.70;;;13.04;49.44
52291;BME280;39663;45.432;28.050;2023-02-28T01:11:17;102393.56;;;13.06;49.35
52291;BME280;39663;45.432;28.050;2023-02-28T01:11:48;102392.41;;;12.87;49.43
52291;BME280;39663;45.432;28.050;2023-02-28T01:12:20;102394.18;;;13.03;49.44
52291;BME280;39663;45.432;28.050;2023-02-28T01:12:51;102391.81;;;12.94;49.34
52291;BME280;39663;45.432;28.050;2023-02-28T01:13:23;102393.14;;;12.89;49.34
52291;BME280;39663;45.432;28.050;2023-02-28T01:13:55;102395.45;;;13.16;49.27
52291;BME280;39663;45.432;28.050;2023-02-28T01:14:26;102394.60;;;13.13;49.36
52291;BME280;39663;45.432;28.050;2023-02-28T01:14:58;102392.33;;;13.13;49.30
52291;BME280;39663;45.432;28.050;2023-02-28T01:15:29;102393.31;;;12.92;49.26
52291;BME280;39663;45.432;28.050;2023-02-28T01:16:01;102392.62;;;13.11;49.30
52291;BME280;39663;45.432;28.050;2023-02-28T01:16:32;102392.86;;;13.17;49.19
52291;BME280;39663;45.432;28.050;2023-02-28T01:17:04;102393.83;;;12.91;49.33
52291;BME280;39663;45.432;28.050;2023-02-28T01:17:36;102396.20;;;13.10;49.17
52291;BME280;39663;45.432;28.050;2023-02-28T01:18:07;102395.98;;;12.90;49.32
52291;BME280;39663;45.432;28.050;2023-02-28T01:18:39;102400.12;;;12.92;49.34
52291;BME280;39663;45.432;28.050;2023-02-28T01:19:11;102394.68;;;13.10;49.06
52291;BME280;39663;45.432;28.050;2023-02-28T01:19:42;102396.69;;;12.78;49.27
52291;BME280;39663;45.432;28.050;2023-02-28T01:20:14;102396.21;;;13.06;49.24
52291;BME280;39663;45.432;28.050;2023-02-28T01:20:45;102394.45;;;13.14;49.33
52291;BME280;39663;45.432;28.050;2023-02-28T01:21:20;102394.91;;;13.05;49.33
52291;BME280;39663;45.432;28.050;2023-02-28T01:21:51;102392.99;;;12.75;49.43
52291;BME280;39663;45.432;28.050;2023-02-28T01:22:23;102392.88;;;12.72;49.41
52291;BME280;39663;45.432;28.050;2023-02-28T01:22:54;102395.26;;;12.92;49.49
52291;BME280;39663;45.432;28.050;2023-02-28T01:23:26;102397.34;;;12.88;49.36
52291;BME280;39663;45.432;28.050;2023-02-28T01:23:58;102393.83;;;12.95;49.20
52291;BME280;39663;45.432;28.050;2023-02-28T01:24:29;102394.46;;;12.89;49.32
52291;BME280;39663;45.432;28.050;2023-02-28T01:25:01;102394.68;;;12.74;49.17
52291;BME280;39663;45.432;28.050;2023-02-28T01:25:35;102394.88;;;12.90;49.28
52291;BME280;39663;45.432;28.050;2023-02-28T01:26:07;102396.25;;;12.64;49.29
52291;BME280;39663;45.432;28.050;2023-02-28T01:26:39;102394.27;;;12.95;49.32
52291;BME280;39663;45.432;28.050;2023-02-28T01:27:11;102397.00;;;13.16;49.27
52291;BME280;39663;45.432;28.050;2023-02-28T01:27:42;102399.28;;;12.99;49.11
52291;BME280;39663;45.432;28.050;2023-02-28T01:28:14;102400.80;;;13.14;49.16
52291;BME280;39663;45.432;28.050;2023-02-28T01:28:46;102401.16;;;12.89;49.20
52291;BME280;39663;45.432;28.050;2023-02-28T01:29:18;102402.22;;;13.05;49.14
52291;BME280;39663;45.432;28.050;2023-02-28T01:29:51;102401.40;;;13.04;49.19
52291;BME280;39663;45.432;28.050;2023-02-28T01:30:22;102403.45;;;12.79;48.95
52291;BME280;39663;45.432;28.050;2023-02-28T01:30:53;102400.60;;;13.12;49.22
52291;BME280;39663;45.432;28.050;2023-02-28T01:31:25;102403.61;;;12.89;49.24
52291;BME280;39663;45.432;28.050;2023-02-28T01:31:57;102405.22;;;13.12;49.24
52291;BME280;39663;45.432;28.050;2023-02-28T01:32:28;102404.88;;;13.03;49.28
52291;BME280;39663;45.432;28.050;2023-02-28T01:33:00;102405.43;;;12.98;49.02
52291;BME280;39663;45.432;28.050;2023-02-28T01:33:32;102406.62;;;12.84;49.31
52291;BME280;39663;45.432;28.050;2023-02-28T01:34:04;102409.54;;;12.65;49.36
52291;BME280;39663;45.432;28.050;2023-02-28T01:34:36;102410.57;;;12.94;49.34
52291;BME280;39663;45.432;28.050;2023-02-28T01:35:08;102410.23;;;13.06;49.35
52291;BME280;39663;45.432;28.050;2023-02-28T01:35:39;102411.24;;;12.88;49.28
52291;BME280;39663;45.432;28.050;2023-02-28T01:36:12;102413.10;;;13.14;49.38
52291;BME280;39663;45.432;28.050;2023-02-28T01:36:44;102416.52;;;12.74;49.35
52291;BME280;39663;45.432;28.050;2023-02-28T01:37:15;102417.55;;;12.94;49.25
52291;BME280;39663;45.432;28.050;2023-02-28T01:37:47;102419.23;;;12.82;49.22
52291;BME280;39663;45.432;28.050;2023-02-28T01:38:18;102418.78;;;12.77;49.21
52291;BME280;39663;45.432;28.050;2023-02-28T01:38:50;102424.08;;;12.97;49.33
52291;BME280;39663;45.432;28.050;2023-02-28T01:39:21;102424.80;;;12.83;48.84
52291;BME280;39663;45.432;28.050;2023-02-28T01:39:53;102425.55;;;12.91;49.09
52291;BME280;39663;45.432;28.050;2023-02-28T01:40:24;102426.77;;;12.68;49.14
52291;BME280;39663;45.432;28.050;2023-02-28T01:40:56;102427.19;;;12.90;48.99
52291;BME280;39663;45.432;28.050;2023-02-28T01:41:30;102428.76;;;12.69;49.21
52291;BME280;39663;45.432;28.050;2023-02-28T01:42:02;102432.28;;;13.08;49.29
52291;BME280;39663;45.432;28.050;2023-02-28T01:42:33;102430.89;;;12.65;49.22
52291;BME280;39663;45.432;28.050;2023-02-28T01:43:12;102432.18;;;13.06;49.31
52291;BME280;39663;45.432;28.050;2023-02-28T01:43:56;102433.90;;;12.90;49.30
52291;BME280;39663;45.432;28.050;2023-02-28T01:45:06;102427.52;;;13.13;49.25
52291;BME280;39663;45.432;28.050;2023-02-28T01:45:38;102431.40;;;13.09;49.00
52291;BME280;39663;45.432;28.050;2023-02-28T01:46:10;102428.87;;;12.82;49.21
52291;BME280;39663;45.432;28.050;2023-02-28T01:46:42;102426.46;;;13.09;49.27
52291;BME280;39663;45.432;28.050;2023-02-28T01:47:14;102427.62;;;13.12;49.30
52291;BME280;39663;45.432;28.050;2023-02-28T01:47:46;102426.96;;;12.84;49.24
52291;BME280;39663;45.432;28.050;2023-02-28T01:48:21;102430.23;;;13.13;49.21
52291;BME280;39663;45.432;28.050;2023-02-28T01:49:00;102430.52;;;13.09;49.25
52291;BME280;39663;45.432;28.050;2023-02-28T01:49:32;102430.41;;;12.90;49.46
52291;BME280;39663;45.432;28.050;2023-02-28T01:50:09;102428.14;;;13.03;49.38
52291;BME280;39663;45.432;28.050;2023-02-28T01:50:45;102431.31;;;13.13;48.87
52291;BME280;39663;45.432;28.050;2023-02-28T01:51:20;102428.61;;;12.85;49.17
52291;BME280;39663;45.432;28.050;2023-02-28T01:51:55;102427.88;;;12.89;49.20
52291;BME280;39663;45.432;28.050;2023-02-28T01:52:28;102427.83;;;12.60;49.31
52291;BME280;39663;45.432;28.050;2023-02-28T01:53:01;102426.37;;;12.67;49.16
52291;BME280;39663;45.432;28.050;2023-02-28T01:53:41;102428.87;;;13.03;49.20
52291;BME280;39663;45.432;28.050;2023-02-28T01:54:18;102429.38;;;13.11;49.07
52291;BME280;39663;45.432;28.050;2023-02-28T01:54:52;102425.96;;;12.83;48.89
52291;BME280;39663;45.432;28.050;2023-02-28T01:55:26;102426.35;;;13.06;48.85
52291;BME280;39663;45.432;28.050;2023-02-28T01:55:59;102427.01;;;13.10;48.69
52291;BME280;39663;45.432;28.050;2023-02-28T01:56:35;102424.06;;;13.11;48.55
52291;BME280;39663;45.432;28.050;2023-02-28T01:57:11;102425.14;;;13.04;48.95
52291;BME280;39663;45.432;28.050;2023-02-28T01:57:49;102425.97;;;12.88;48.75
52291;BME280;39663;45.432;28.050;2023-02-28T01:58:21;102421.68;;;12.98;48.42
52291;BME280;39663;45.432;28.050;2023-02-28T01:58:54;102424.17;;;12.83;48.55
52291;BME280;39663;45.432;28.050;2023-02-28T01:59:31;102424.34;;;12.97;49.01
52291;BME280;39663;45.432;28.050;2023-02-28T02:00:08;102426.54;;;12.82;48.66
52291;BME280;39663;45.432;28.050;2023-02-28T02:00:39;102425.61;;;13.01;48.40
52291;BME280;39663;45.432;28.050;2023-02-28T02:01:11;102426.07;;;12.92;48.50
52291;BME280;39663;45.432;28.050;2023-02-28T02:01:43;102425.42;;;12.54;48.86
52291;BME280;39663;45.432;28.050;2023-02-28T02:02:15;102427.31;;;12.75;48.88
52291;BME280;39663;45.432;28.050;2023-02-28T02:02:51;102426.10;;;12.76;48.93
52291;BME280;39663;45.432;28.050;2023-02-28T02:03:24;102427.48;;;12.67;49.01
52291;BME280;39663;45.432;28.050;2023-02-28T02:03:58;102431.23;;;12.66;49.04
52291;BME280;39663;45.432;28.050;2023-02-28T02:04:39;102428.05;;;12.52;49.03
52291;BME280;39663;45.432;28.050;2023-02-28T02:05:15;102431.01;;;12.73;49.00
52291;BME280;39663;45.432;28.050;2023-02-28T02:05:47;102428.63;;;12.96;48.62
52291;BME280;39663;45.432;28.050;2023-02-28T02:06:19;102431.24;;;12.79;48.70
52291;BME280;39663;45.432;28.050;2023-02-28T02:06:51;102431.28;;;12.85;48.99
52291;BME280;39663;45.432;28.050;2023-02-28T02:07:23;102432.09;;;12.93;49.09
52291;BME280;39663;45.432;28.050;2023-02-28T02:08:00;102432.18;;;12.98;48.89
52291;BME280;39663;45.432;28.050;2023-02-28T02:08:32;102430.34;;;12.76;48.79
52291;BME280;39663;45.432;28.050;2023-02-28T02:09:04;102434.06;;;12.54;48.89
52291;BME280;39663;45.432;28.050;2023-02-28T02:09:36;102433.32;;;12.71;48.42
52291;BME280;39663;45.432;28.050;2023-02-28T02:10:14;102431.85;;;12.90;48.64
52291;BME280;39663;45.432;28.050;2023-02-28T02:10:48;102433.35;;;12.90;48.96
52291;BME280;39663;45.432;28.050;2023-02-28T02:11:22;102430.79;;;12.95;48.49
52291;BME280;39663;45.432;28.050;2023-02-28T02:11:56;102431.71;;;12.76;48.83
52291;BME280;39663;45.432;28.050;2023-02-28T02:12:36;102428.11;;;12.91;48.97
52291;BME280;39663;45.432;28.050;2023-02-28T02:13:20;102428.09;;;13.12;48.95
52291;BME280;39663;45.432;28.050;2023-02-28T02:14:09;102429.56;;;12.76;48.90
52291;BME280;39663;45.432;28.050;2023-02-28T02:14:52;102428.09;;;12.96;48.89
52291;BME280;39663;45.432;28.050;2023-02-28T02:15:31;102426.93;;;12.93;48.79
52291;BME280;39663;45.432;28.050;2023-02-28T02:16:12;102427.84;;;12.67;48.92
52291;BME280;39663;45.432;28.050;2023-02-28T02:16:56;102424.15;;;12.51;48.52
52291;BME280;39663;45.432;28.050;2023-02-28T02:17:36;102423.67;;;12.95;47.95
52291;BME280;39663;45.432;28.050;2023-02-28T02:18:18;102422.53;;;13.04;47.85
52291;BME280;39663;45.432;28.050;2023-02-28T02:18:57;102421.52;;;12.91;47.71
52291;BME280;39663;45.432;28.050;2023-02-28T02:19:53;102425.68;;;12.77;48.40
52291;BME280;39663;45.432;28.050;2023-02-28T02:21:26;102425.43;;;12.82;48.23
52291;BME280;39663;45.432;28.050;2023-02-28T02:22:19;102429.21;;;12.54;48.57
52291;BME280;39663;45.432;28.050;2023-02-28T02:25:00;102431.10;;;12.77;48.21
52291;BME280;39663;45.432;28.050;2023-02-28T02:25:39;102433.25;;;12.64;48.38
52291;BME280;39663;45.432;28.050;2023-02-28T02:26:45;102437.64;;;12.43;48.67
52291;BME280;39663;45.432;28.050;2023-02-28T02:27:26;102437.68;;;12.73;48.16
52291;BME280;39663;45.432;28.050;2023-02-28T02:28:55;102438.51;;;12.71;48.58
52291;BME280;39663;45.432;28.050;2023-02-28T02:30:24;102440.38;;;12.46;48.77
52291;BME280;39663;45.432;28.050;2023-02-28T02:31:30;102439.96;;;12.67;48.83
52291;BME280;39663;45.432;28.050;2023-02-28T02:32:20;102442.66;;;12.38;48.33
52291;BME280;39663;45.432;28.050;2023-02-28T02:33:10;102444.50;;;12.54;48.30
52291;BME280;39663;45.432;28.050;2023-02-28T02:34:52;102442.49;;;12.65;48.74
52291;BME280;39663;45.432;28.050;2023-02-28T02:35:28;102443.62;;;12.29;48.70
52291;BME280;39663;45.432;28.050;2023-02-28T02:36:06;102446.54;;;12.54;48.78
52291;BME280;39663;45.432;28.050;2023-02-28T02:36:46;102446.19;;;12.73;48.62
52291;BME280;39663;45.432;28.050;2023-02-28T02:37:27;102449.05;;;12.75;48.61
52291;BME280;39663;45.432;28.050;2023-02-28T02:38:05;102449.21;;;12.69;48.49
52291;BME280;39663;45.432;28.050;2023-02-28T02:38:44;102455.85;;;12.73;48.50
52291;BME280;39663;45.432;28.050;2023-02-28T02:39:25;102451.61;;;12.55;48.03
52291;BME280;39663;45.432;28.050;2023-02-28T02:40:07;102453.68;;;12.54;48.30
52291;BME280;39663;45.432;28.050;2023-02-28T02:40:45;102452.37;;;12.89;48.37
52291;BME280;39663;45.432;28.050;2023-02-28T02:41:26;102454.68;;;12.68;48.19
52291;BME280;39663;45.432;28.050;2023-02-28T02:42:02;102458.18;;;12.44;48.57
52291;BME280;39663;45.432;28.050;2023-02-28T02:42:40;102460.66;;;12.43;48.67
52291;BME280;39663;45.432;28.050;2023-02-28T02:43:17;102462.32;;;12.61;48.46
52291;BME280;39663;45.432;28.050;2023-02-28T02:43:54;102459.64;;;12.66;48.69
52291;BME280;39663;45.432;28.050;2023-02-28T02:44:30;102463.18;;;12.71;48.73
52291;BME280;39663;45.432;28.050;2023-02-28T02:45:06;102465.76;;;12.69;48.78
52291;BME280;39663;45.432;28.050;2023-02-28T02:45:44;102465.13;;;12.67;48.82
52291;BME280;39663;45.432;28.050;2023-02-28T02:46:20;102467.78;;;12.70;48.67
52291;BME280;39663;45.432;28.050;2023-02-28T02:46:58;102465.72;;;12.71;48.12
52291;BME280;39663;45.432;28.050;2023-02-28T02:47:31;102464.81;;;12.73;48.53
52291;BME280;39663;45.432;28.050;2023-02-28T02:48:07;102465.31;;;12.67;48.69
52291;BME280;39663;45.432;28.050;2023-02-28T02:48:42;102463.01;;;12.60;48.82
52291;BME280;39663;45.432;28.050;2023-02-28T02:49:19;102464.11;;;12.64;48.86
52291;BME280;39663;45.432;28.050;2023-02-28T02:49:53;102465.45;;;12.49;48.78
52291;BME280;39663;45.432;28.050;2023-02-28T02:50:31;102464.13;;;12.82;48.82
52291;BME280;39663;45.432;28.050;2023-02-28T02:51:07;102463.68;;;12.69;48.66
52291;BME280;39663;45.432;28.050;2023-02-28T02:51:42;102464.79;;;12.64;48.73
52291;BME280;39663;45.432;28.050;2023-02-28T02:52:16;102463.75;;;12.64;48.85
52291;BME280;39663;45.432;28.050;2023-02-28T02:52:55;102466.71;;;12.62;49.02
52291;BME280;39663;45.432;28.050;2023-02-28T02:53:31;102465.08;;;12.57;48.97
52291;BME280;39663;45.432;28.050;2023-02-28T02:54:08;102464.67;;;12.82;48.43
52291;BME280;39663;45.432;28.050;2023-02-28T02:54:43;102467.90;;;12.65;48.82
52291;BME280;39663;45.432;28.050;2023-02-28T02:55:17;102467.23;;;12.68;48.72
52291;BME280;39663;45.432;28.050;2023-02-28T02:55:51;102469.17;;;12.49;48.54
52291;BME280;39663;45.432;28.050;2023-02-28T02:56:27;102467.97;;;12.63;48.69
52291;BME280;39663;45.432;28.050;2023-02-28T02:57:09;102470.17;;;12.66;48.62
52291;BME280;39663;45.432;28.050;2023-02-28T02:57:45;102471.55;;;12.61;48.73
52291;BME280;39663;45.432;28.050;2023-02-28T02:58:22;102469.72;;;12.69;48.42
52291;BME280;39663;45.432;28.050;2023-02-28T02:58:59;102471.77;;;12.66;48.08
52291;BME280;39663;45.432;28.050;2023-02-28T02:59:33;102473.19;;;12.64;47.98
52291;BME280;39663;45.432;28.050;2023-02-28T03:00:07;102476.53;;;12.34;48.64
52291;BME280;39663;45.432;28.050;2023-02-28T03:00:42;102475.70;;;12.46;48.71
52291;BME280;39663;45.432;28.050;2023-02-28T03:01:19;102476.15;;;12.35;48.89
52291;BME280;39663;45.432;28.050;2023-02-28T03:01:55;102482.46;;;12.52;48.96
52291;BME280;39663;45.432;28.050;2023-02-28T03:02:29;102483.50;;;12.58;48.45
52291;BME280;39663;45.432;28.050;2023-02-28T03:03:02;102485.54;;;12.59;48.60
52291;BME280;39663;45.432;28.050;2023-02-28T03:03:34;102488.14;;;12.60;48.34
52291;BME280;39663;45.432;28.050;2023-02-28T03:04:10;102491.03;;;12.54;48.21
52291;BME280;39663;45.432;28.050;2023-02-28T03:04:45;102492.10;;;12.56;47.59
52291;BME280;39663;45.432;28.050;2023-02-28T03:05:21;102493.98;;;12.33;47.57
52291;BME280;39663;45.432;28.050;2023-02-28T03:05:55;102497.12;;;12.50;48.17
52291;BME280;39663;45.432;28.050;2023-02-28T03:06:27;102496.73;;;12.66;48.20
52291;BME280;39663;45.432;28.050;2023-02-28T03:06:59;102498.17;;;12.31;48.45
52291;BME280;39663;45.432;28.050;2023-02-28T03:07:30;102496.86;;;12.44;47.71
52291;BME280;39663;45.432;28.050;2023-02-28T03:08:03;102496.62;;;12.45;47.74
52291;BME280;39663;45.432;28.050;2023-02-28T03:08:37;102497.85;;;12.42;47.56
52291;BME280;39663;45.432;28.050;2023-02-28T03:09:09;102499.39;;;12.39;47.71
52291;BME280;39663;45.432;28.050;2023-02-28T03:09:40;102499.33;;;12.37;48.12
52291;BME280;39663;45.432;28.050;2023-02-28T03:10:31;102496.95;;;12.41;47.45
52291;BME280;39663;45.432;28.050;2023-02-28T03:11:05;102501.07;;;12.34;48.32
52291;BME280;39663;45.432;28.050;2023-02-28T03:11:38;102502.39;;;12.30;47.56
52291;BME280;39663;45.432;28.050;2023-02-28T03:12:12;102502.31;;;12.50;47.92
52291;BME280;39663;45.432;28.050;2023-02-28T03:12:49;102504.60;;;12.50;47.93